Oakdale, PA (15071)

7:33 AM EDT on April 25, 2017 (GMT -0400)
Walden Woods | | Change Station

Elev 1040 ft 40.44 °N, 80.22 °W | Updated 6 seconds ago

Mostly Cloudy
Mostly Cloudy
50.3 °F
Feels Like 50.3 °F
N
0.0
Wind Variable Wind from North

Today
High -- | Low -- °F
--% Chance of Precip.
Yesterday
High -- | Low -- °F
Precip. -- in
Pressure 29.93 in
Visibility 7.0 miles
Clouds Few 900 ft
Scattered Clouds 4000 ft
Overcast 8500 ft
Dew Point 49 °F
Humidity 96%
Rainfall 0.07 in
Snow Depth Not available.
6:27 AM 8:10 PM
Waning Crescent, 2% visible
METAR KPIT 251051Z 10007KT 7SM -RA FEW009 SCT040 OVC085 10/09 A2990 RMK AO2 SLP133 P0003 T01000094 $
Pressure 29.93 in
Visibility 7.0 miles
Clouds Few 900 ft
Scattered Clouds 4000 ft
Overcast 8500 ft
Dew Point 49 °F
Humidity 96%
Rainfall 0.07 in
Snow Depth Not available.
6:27 AM 8:10 PM
Waning Crescent, 2% visible
METAR KPIT 251051Z 10007KT 7SM -RA FEW009 SCT040 OVC085 10/09 A2990 RMK AO2 SLP133 P0003 T01000094 $

Get Severe Weather Alerts

Thanks for signing up!

Be on the lookout for a verification email in your inbox.

You'll start receiving the daily forecast at 8 AM.

×

10-Day Weather Forecast

Almanac

Astronomy

Apr. 25, 2017 Rise Set
Actual Time
Civil Twilight
Nautical Twilight
Astronomical Twilight
Moon
Length of Visible Light
Length of Day
Tomorrow will be .
, % of the Moon is Illuminated

Today's Extremes

State Highs State Lows

Community

WunderPhotos

WunderBlog® & News

Nearby

Air Quality

  Air Quality AQ Index Pollutant
Not available.

Snow Depth

Station Depth Elevation

Earthquake Activity

City Distance Mag. Time & Date
Minimum magnitude displayed is 2.5.

Coastal Water Temperatures

Place Temperature

Stations

Nearby Weather Stations

Station Location Temp. Windchill Dew Point Humidity Wind Precip. Elev Updated Type
                   

Watches & Warnings

There are currently no watches in effect.